4NK4 weather

Woodford Airfield
Fabius, New York, United States

Public forecast

Using degrees Fahrenheit for public forecast. Weather courtesy of forecast.io.

Closest aviation weather report (METAR) to Woodford Airfield

Closest report is Cortland County Chase Field, 16.4 nm (30.3 km) SSW. Retrieved 2020/04/07 23:35 UTC (0 seconds ago):

KN03 072335Z AUTO 06007KT 10SM SCT050 BKN070 OVC090 12/M01 A2971 RMK AO2

Closest aviation forecast (TAF) to Woodford Airfield

Closest forecast is Syracuse Hancock International Airport, 17.4 nm (32.3 km) NNW. Retrieved 2020/04/07 18:28 UTC (5 hours ago):

TAF KSYR 071726Z 0718/0818 28007KT P6SM SCT100 FM080000 05005KT P6SM OVC035 FM080300 07004KT 6SM -SHRA OVC028 TEMPO 0805/0808 5SM -SHRA BR OVC012 FM081600 33005KT P6SM BKN035 OVC050